Terminal Aerodrome Forecast
Issued by NWS

Home | Current Version | Previous Version | Graphics & Text | Print | Product List | Glossary On
Versions: 1 2 3 4 5 6 7 8 9 10 11 12 13 14 15
000
FTUS43 KMPX 151100 RRA
TAFRWF
TAF
KRWF 151146Z 1512/1612 33008KT 6SM BR OVC005
     FM151500 36012G18KT 2SM RA BR OVC006
      TEMPO 1518/1522 -FZRAPLSN
     FM152200 35022G32KT 3/4SM -SN BR OVC005
     FM160400 33020G28KT 4SM -SN BR OVC012
     FM160600 33016G22KT P6SM OVC015=

USA.gov is the U.S. government's official web portal to all federal, state and local government web resources and services.